sensor_id;sensor_type;location;lat;lon;timestamp;P1;durP1;ratioP1;P2;durP2;ratioP2
31500;SDS011;31032;49.512;10.892;2022-08-01T00:00:21;3.50;;;2.10;;
31500;SDS011;31032;49.512;10.892;2022-08-01T00:02:46;3.22;;;1.85;;
31500;SDS011;31032;49.512;10.892;2022-08-01T00:05:12;3.30;;;1.80;;
31500;SDS011;31032;49.512;10.892;2022-08-01T00:07:37;4.93;;;2.20;;
31500;SDS011;31032;49.512;10.892;2022-08-01T00:10:04;2.50;;;1.90;;
31500;SDS011;31032;49.512;10.892;2022-08-01T00:12:32;4.70;;;1.90;;
31500;SDS011;31032;49.512;10.892;2022-08-01T00:14:57;4.05;;;1.80;;
31500;SDS011;31032;49.512;10.892;2022-08-01T00:17:23;4.25;;;2.10;;
31500;SDS011;31032;49.512;10.892;2022-08-01T00:19:48;4.63;;;2.00;;
31500;SDS011;31032;49.512;10.892;2022-08-01T00:22:13;2.70;;;1.85;;
31500;SDS011;31032;49.512;10.892;2022-08-01T00:24:39;3.08;;;1.92;;
31500;SDS011;31032;49.512;10.892;2022-08-01T00:27:04;3.05;;;2.25;;
31500;SDS011;31032;49.512;10.892;2022-08-01T00:29:29;4.05;;;2.10;;
31500;SDS011;31032;49.512;10.892;2022-08-01T00:31:55;2.40;;;2.00;;
31500;SDS011;31032;49.512;10.892;2022-08-01T00:34:20;2.90;;;1.90;;
31500;SDS011;31032;49.512;10.892;2022-08-01T00:36:45;2.55;;;1.80;;
31500;SDS011;31032;49.512;10.892;2022-08-01T00:39:11;3.10;;;1.98;;
31500;SDS011;31032;49.512;10.892;2022-08-01T00:41:37;3.58;;;2.10;;
31500;SDS011;31032;49.512;10.892;2022-08-01T00:44:05;2.92;;;1.67;;
31500;SDS011;31032;49.512;10.892;2022-08-01T00:46:31;2.38;;;1.85;;
31500;SDS011;31032;49.512;10.892;2022-08-01T00:48:57;5.95;;;1.95;;
31500;SDS011;31032;49.512;10.892;2022-08-01T00:51:23;4.07;;;1.80;;
31500;SDS011;31032;49.512;10.892;2022-08-01T00:53:50;3.30;;;1.70;;
31500;SDS011;31032;49.512;10.892;2022-08-01T00:56:16;2.30;;;1.80;;
31500;SDS011;31032;49.512;10.892;2022-08-01T00:58:41;2.78;;;1.83;;
31500;SDS011;31032;49.512;10.892;2022-08-01T01:01:07;2.55;;;1.70;;
31500;SDS011;31032;49.512;10.892;2022-08-01T01:03:33;2.67;;;1.70;;
31500;SDS011;31032;49.512;10.892;2022-08-01T01:09:01;3.88;;;2.22;;
31500;SDS011;31032;49.512;10.892;2022-08-01T01:11:36;4.28;;;2.03;;
31500;SDS011;31032;49.512;10.892;2022-08-01T01:14:19;6.45;;;1.90;;
31500;SDS011;31032;49.512;10.892;2022-08-01T01:16:58;4.72;;;2.10;;
31500;SDS011;31032;49.512;10.892;2022-08-01T01:19:28;2.92;;;1.60;;
31500;SDS011;31032;49.512;10.892;2022-08-01T01:22:00;2.65;;;1.77;;
31500;SDS011;31032;49.512;10.892;2022-08-01T01:24:48;3.90;;;1.73;;
31500;SDS011;31032;49.512;10.892;2022-08-01T01:30:18;3.03;;;1.80;;
31500;SDS011;31032;49.512;10.892;2022-08-01T01:32:45;3.25;;;2.00;;
31500;SDS011;31032;49.512;10.892;2022-08-01T01:35:17;7.75;;;2.00;;
31500;SDS011;31032;49.512;10.892;2022-08-01T01:37:46;2.63;;;1.80;;
31500;SDS011;31032;49.512;10.892;2022-08-01T01:40:14;2.53;;;2.05;;
31500;SDS011;31032;49.512;10.892;2022-08-01T01:42:41;3.90;;;1.48;;
31500;SDS011;31032;49.512;10.892;2022-08-01T01:45:08;2.25;;;1.65;;
31500;SDS011;31032;49.512;10.892;2022-08-01T01:47:34;3.10;;;1.67;;
31500;SDS011;31032;49.512;10.892;2022-08-01T01:50:03;2.47;;;1.23;;
31500;SDS011;31032;49.512;10.892;2022-08-01T01:52:31;2.03;;;1.63;;
31500;SDS011;31032;49.512;10.892;2022-08-01T01:54:57;2.00;;;1.58;;
31500;SDS011;31032;49.512;10.892;2022-08-01T01:57:24;2.63;;;1.77;;
31500;SDS011;31032;49.512;10.892;2022-08-01T01:59:51;2.22;;;1.42;;
31500;SDS011;31032;49.512;10.892;2022-08-01T02:02:18;2.83;;;1.58;;
31500;SDS011;31032;49.512;10.892;2022-08-01T02:04:45;2.72;;;1.35;;
31500;SDS011;31032;49.512;10.892;2022-08-01T02:07:12;3.00;;;1.58;;
31500;SDS011;31032;49.512;10.892;2022-08-01T02:09:44;2.15;;;1.38;;
31500;SDS011;31032;49.512;10.892;2022-08-01T02:12:12;2.60;;;1.65;;
31500;SDS011;31032;49.512;10.892;2022-08-01T02:14:39;3.08;;;1.40;;
31500;SDS011;31032;49.512;10.892;2022-08-01T02:17:05;2.28;;;1.73;;
31500;SDS011;31032;49.512;10.892;2022-08-01T02:19:34;2.03;;;1.33;;
31500;SDS011;31032;49.512;10.892;2022-08-01T02:24:50;3.00;;;1.42;;
31500;SDS011;31032;49.512;10.892;2022-08-01T02:30:36;2.42;;;1.20;;
31500;SDS011;31032;49.512;10.892;2022-08-01T02:34:04;2.42;;;1.10;;
31500;SDS011;31032;49.512;10.892;2022-08-01T02:36:06;3.30;;;1.48;;
31500;SDS011;31032;49.512;10.892;2022-08-01T02:38:33;4.13;;;1.33;;
31500;SDS011;31032;49.512;10.892;2022-08-01T02:41:07;2.22;;;1.33;;
31500;SDS011;31032;49.512;10.892;2022-08-01T02:43:35;3.15;;;1.13;;
31500;SDS011;31032;49.512;10.892;2022-08-01T02:46:08;2.65;;;1.30;;
31500;SDS011;31032;49.512;10.892;2022-08-01T02:48:37;2.08;;;1.23;;
31500;SDS011;31032;49.512;10.892;2022-08-01T02:51:05;3.15;;;1.63;;
31500;SDS011;31032;49.512;10.892;2022-08-01T02:53:33;3.72;;;1.60;;
31500;SDS011;31032;49.512;10.892;2022-08-01T02:56:04;2.20;;;1.13;;
31500;SDS011;31032;49.512;10.892;2022-08-01T02:58:30;2.08;;;1.50;;
31500;SDS011;31032;49.512;10.892;2022-08-01T03:00:58;2.95;;;1.58;;
31500;SDS011;31032;49.512;10.892;2022-08-01T03:03:25;2.15;;;1.50;;
31500;SDS011;31032;49.512;10.892;2022-08-01T03:05:50;2.42;;;1.50;;
31500;SDS011;31032;49.512;10.892;2022-08-01T03:08:16;3.50;;;1.23;;
31500;SDS011;31032;49.512;10.892;2022-08-01T03:10:44;2.58;;;1.73;;
31500;SDS011;31032;49.512;10.892;2022-08-01T03:13:11;2.63;;;1.40;;
31500;SDS011;31032;49.512;10.892;2022-08-01T03:15:41;2.67;;;1.43;;
31500;SDS011;31032;49.512;10.892;2022-08-01T03:18:08;2.38;;;1.38;;
31500;SDS011;31032;49.512;10.892;2022-08-01T03:20:35;3.42;;;1.50;;
31500;SDS011;31032;49.512;10.892;2022-08-01T03:23:05;3.35;;;1.63;;
31500;SDS011;31032;49.512;10.892;2022-08-01T03:25:32;3.22;;;1.45;;
31500;SDS011;31032;49.512;10.892;2022-08-01T03:28:01;2.58;;;1.45;;
31500;SDS011;31032;49.512;10.892;2022-08-01T03:30:29;6.78;;;2.08;;
31500;SDS011;31032;49.512;10.892;2022-08-01T03:32:57;3.42;;;1.33;;
31500;SDS011;31032;49.512;10.892;2022-08-01T03:35:23;3.00;;;1.40;;
31500;SDS011;31032;49.512;10.892;2022-08-01T03:37:54;2.97;;;1.42;;
31500;SDS011;31032;49.512;10.892;2022-08-01T03:40:23;2.25;;;1.67;;
31500;SDS011;31032;49.512;10.892;2022-08-01T03:42:52;2.30;;;1.50;;
31500;SDS011;31032;49.512;10.892;2022-08-01T03:45:25;2.35;;;1.55;;
31500;SDS011;31032;49.512;10.892;2022-08-01T03:47:54;2.20;;;1.60;;
31500;SDS011;31032;49.512;10.892;2022-08-01T03:50:24;2.65;;;1.50;;
31500;SDS011;31032;49.512;10.892;2022-08-01T03:52:51;2.75;;;1.85;;
31500;SDS011;31032;49.512;10.892;2022-08-01T03:55:19;2.88;;;1.55;;
31500;SDS011;31032;49.512;10.892;2022-08-01T03:57:46;5.13;;;1.98;;
31500;SDS011;31032;49.512;10.892;2022-08-01T04:00:13;2.50;;;1.63;;
31500;SDS011;31032;49.512;10.892;2022-08-01T04:02:43;3.35;;;2.00;;
31500;SDS011;31032;49.512;10.892;2022-08-01T04:05:12;2.03;;;1.42;;
31500;SDS011;31032;49.512;10.892;2022-08-01T04:07:38;2.65;;;1.80;;
31500;SDS011;31032;49.512;10.892;2022-08-01T04:10:05;2.58;;;1.83;;
31500;SDS011;31032;49.512;10.892;2022-08-01T04:12:31;3.45;;;1.90;;
31500;SDS011;31032;49.512;10.892;2022-08-01T04:14:57;2.47;;;1.50;;
31500;SDS011;31032;49.512;10.892;2022-08-01T04:17:23;2.70;;;1.70;;
31500;SDS011;31032;49.512;10.892;2022-08-01T04:19:49;2.60;;;1.60;;
31500;SDS011;31032;49.512;10.892;2022-08-01T04:22:15;2.60;;;1.80;;
31500;SDS011;31032;49.512;10.892;2022-08-01T04:24:41;3.47;;;1.65;;
31500;SDS011;31032;49.512;10.892;2022-08-01T04:27:09;3.10;;;2.15;;
31500;SDS011;31032;49.512;10.892;2022-08-01T04:29:38;3.25;;;1.70;;
31500;SDS011;31032;49.512;10.892;2022-08-01T04:32:05;4.10;;;1.85;;
31500;SDS011;31032;49.512;10.892;2022-08-01T04:34:34;2.35;;;1.50;;
31500;SDS011;31032;49.512;10.892;2022-08-01T04:37:02;2.67;;;1.80;;
31500;SDS011;31032;49.512;10.892;2022-08-01T04:39:31;2.50;;;1.70;;
31500;SDS011;31032;49.512;10.892;2022-08-01T04:41:59;1.88;;;1.30;;
31500;SDS011;31032;49.512;10.892;2022-08-01T04:44:28;2.95;;;1.60;;
31500;SDS011;31032;49.512;10.892;2022-08-01T04:46:54;2.47;;;1.85;;
31500;SDS011;31032;49.512;10.892;2022-08-01T04:49:21;2.67;;;1.63;;
31500;SDS011;31032;49.512;10.892;2022-08-01T04:51:50;3.75;;;1.70;;
31500;SDS011;31032;49.512;10.892;2022-08-01T04:56:55;2.60;;;1.52;;
31500;SDS011;31032;49.512;10.892;2022-08-01T04:59:25;2.08;;;1.35;;
31500;SDS011;31032;49.512;10.892;2022-08-01T05:02:06;3.65;;;1.90;;
31500;SDS011;31032;49.512;10.892;2022-08-01T05:04:39;4.38;;;1.92;;
31500;SDS011;31032;49.512;10.892;2022-08-01T05:07:05;3.33;;;1.90;;
31500;SDS011;31032;49.512;10.892;2022-08-01T05:09:32;3.00;;;2.00;;
31500;SDS011;31032;49.512;10.892;2022-08-01T05:12:01;2.90;;;1.80;;
31500;SDS011;31032;49.512;10.892;2022-08-01T05:14:28;3.70;;;2.00;;
31500;SDS011;31032;49.512;10.892;2022-08-01T05:16:57;3.00;;;1.73;;
31500;SDS011;31032;49.512;10.892;2022-08-01T05:19:23;2.53;;;1.48;;
31500;SDS011;31032;49.512;10.892;2022-08-01T05:21:49;2.22;;;1.52;;
31500;SDS011;31032;49.512;10.892;2022-08-01T05:24:14;2.58;;;1.50;;
31500;SDS011;31032;49.512;10.892;2022-08-01T05:26:39;2.83;;;1.48;;
31500;SDS011;31032;49.512;10.892;2022-08-01T05:29:05;2.97;;;1.45;;
31500;SDS011;31032;49.512;10.892;2022-08-01T05:31:30;2.30;;;1.30;;
31500;SDS011;31032;49.512;10.892;2022-08-01T05:33:59;4.40;;;1.90;;
31500;SDS011;31032;49.512;10.892;2022-08-01T05:38:53;1.52;;;1.10;;
31500;SDS011;31032;49.512;10.892;2022-08-01T05:41:18;2.47;;;1.10;;
31500;SDS011;31032;49.512;10.892;2022-08-01T05:43:44;3.70;;;1.27;;
31500;SDS011;31032;49.512;10.892;2022-08-01T05:46:09;2.72;;;1.02;;
31500;SDS011;31032;49.512;10.892;2022-08-01T05:48:34;2.72;;;1.08;;
31500;SDS011;31032;49.512;10.892;2022-08-01T05:51:00;2.35;;;1.15;;
31500;SDS011;31032;49.512;10.892;2022-08-01T05:53:25;1.95;;;1.08;;
31500;SDS011;31032;49.512;10.892;2022-08-01T05:55:50;3.97;;;1.20;;
31500;SDS011;31032;49.512;10.892;2022-08-01T05:58:16;1.95;;;1.02;;
31500;SDS011;31032;49.512;10.892;2022-08-01T06:00:41;2.55;;;1.15;;
31500;SDS011;31032;49.512;10.892;2022-08-01T06:03:06;2.65;;;1.08;;
31500;SDS011;31032;49.512;10.892;2022-08-01T06:05:32;3.33;;;1.10;;
31500;SDS011;31032;49.512;10.892;2022-08-01T06:07:57;1.98;;;1.25;;
31500;SDS011;31032;49.512;10.892;2022-08-01T06:10:23;1.98;;;1.15;;
31500;SDS011;31032;49.512;10.892;2022-08-01T06:12:48;2.20;;;1.10;;
31500;SDS011;31032;49.512;10.892;2022-08-01T06:15:14;3.63;;;1.20;;
31500;SDS011;31032;49.512;10.892;2022-08-01T06:17:39;2.15;;;1.20;;
31500;SDS011;31032;49.512;10.892;2022-08-01T06:20:06;1.83;;;1.23;;
31500;SDS011;31032;49.512;10.892;2022-08-01T06:22:32;4.85;;;1.30;;
31500;SDS011;31032;49.512;10.892;2022-08-01T06:24:58;2.05;;;0.95;;
31500;SDS011;31032;49.512;10.892;2022-08-01T06:27:23;1.40;;;0.90;;
31500;SDS011;31032;49.512;10.892;2022-08-01T06:29:50;1.85;;;1.10;;
31500;SDS011;31032;49.512;10.892;2022-08-01T06:32:19;1.52;;;0.93;;
31500;SDS011;31032;49.512;10.892;2022-08-01T06:34:44;1.45;;;0.90;;
31500;SDS011;31032;49.512;10.892;2022-08-01T06:37:10;1.92;;;1.02;;
31500;SDS011;31032;49.512;10.892;2022-08-01T06:39:38;3.22;;;1.08;;
31500;SDS011;31032;49.512;10.892;2022-08-01T06:42:03;3.13;;;1.08;;
31500;SDS011;31032;49.512;10.892;2022-08-01T06:44:28;3.45;;;1.00;;
31500;SDS011;31032;49.512;10.892;2022-08-01T06:46:54;3.78;;;1.15;;
31500;SDS011;31032;49.512;10.892;2022-08-01T06:49:19;2.60;;;1.02;;
31500;SDS011;31032;49.512;10.892;2022-08-01T06:51:44;1.77;;;1.00;;
31500;SDS011;31032;49.512;10.892;2022-08-01T06:54:10;1.58;;;1.00;;
31500;SDS011;31032;49.512;10.892;2022-08-01T06:56:35;1.77;;;0.90;;
31500;SDS011;31032;49.512;10.892;2022-08-01T06:59:00;2.60;;;1.15;;
31500;SDS011;31032;49.512;10.892;2022-08-01T07:01:27;1.52;;;1.00;;
31500;SDS011;31032;49.512;10.892;2022-08-01T07:03:53;3.53;;;1.10;;
31500;SDS011;31032;49.512;10.892;2022-08-01T07:06:19;2.60;;;0.90;;
31500;SDS011;31032;49.512;10.892;2022-08-01T07:08:44;1.58;;;0.82;;
31500;SDS011;31032;49.512;10.892;2022-08-01T07:11:10;2.65;;;0.80;;
31500;SDS011;31032;49.512;10.892;2022-08-01T07:13:35;2.80;;;1.10;;
31500;SDS011;31032;49.512;10.892;2022-08-01T07:16:00;2.05;;;0.98;;
31500;SDS011;31032;49.512;10.892;2022-08-01T07:18:26;2.25;;;1.23;;
31500;SDS011;31032;49.512;10.892;2022-08-01T07:20:51;1.30;;;0.88;;
31500;SDS011;31032;49.512;10.892;2022-08-01T07:23:16;1.55;;;1.00;;
31500;SDS011;31032;49.512;10.892;2022-08-01T07:25:42;1.02;;;0.80;;
31500;SDS011;31032;49.512;10.892;2022-08-01T07:28:07;2.30;;;1.20;;
31500;SDS011;31032;49.512;10.892;2022-08-01T07:30:33;1.60;;;0.90;;
31500;SDS011;31032;49.512;10.892;2022-08-01T07:32:59;3.05;;;1.13;;
31500;SDS011;31032;49.512;10.892;2022-08-01T07:35:25;3.53;;;1.20;;
31500;SDS011;31032;49.512;10.892;2022-08-01T07:37:50;1.20;;;0.98;;
31500;SDS011;31032;49.512;10.892;2022-08-01T07:40:18;1.40;;;0.85;;
31500;SDS011;31032;49.512;10.892;2022-08-01T07:42:44;1.27;;;0.80;;
31500;SDS011;31032;49.512;10.892;2022-08-01T07:45:10;1.77;;;1.00;;
31500;SDS011;31032;49.512;10.892;2022-08-01T07:47:36;1.90;;;1.10;;
31500;SDS011;31032;49.512;10.892;2022-08-01T07:50:03;2.40;;;1.20;;
31500;SDS011;31032;49.512;10.892;2022-08-01T07:52:29;2.40;;;1.23;;
31500;SDS011;31032;49.512;10.892;2022-08-01T07:54:55;1.60;;;1.25;;
31500;SDS011;31032;49.512;10.892;2022-08-01T07:57:22;3.90;;;1.25;;
31500;SDS011;31032;49.512;10.892;2022-08-01T07:59:48;1.95;;;1.10;;
31500;SDS011;31032;49.512;10.892;2022-08-01T08:02:13;1.45;;;1.17;;
31500;SDS011;31032;49.512;10.892;2022-08-01T08:04:39;1.88;;;1.00;;
31500;SDS011;31032;49.512;10.892;2022-08-01T08:07:04;1.27;;;1.00;;
31500;SDS011;31032;49.512;10.892;2022-08-01T08:09:29;2.95;;;0.93;;
31500;SDS011;31032;49.512;10.892;2022-08-01T08:11:55;1.60;;;1.00;;
31500;SDS011;31032;49.512;10.892;2022-08-01T08:14:21;2.83;;;1.17;;
31500;SDS011;31032;49.512;10.892;2022-08-01T08:16:47;3.72;;;1.05;;
31500;SDS011;31032;49.512;10.892;2022-08-01T08:19:13;0.95;;;0.65;;
31500;SDS011;31032;49.512;10.892;2022-08-01T08:21:38;1.33;;;0.88;;
31500;SDS011;31032;49.512;10.892;2022-08-01T08:24:05;1.38;;;0.80;;
31500;SDS011;31032;49.512;10.892;2022-08-01T08:26:51;1.27;;;0.80;;
31500;SDS011;31032;49.512;10.892;2022-08-01T08:29:19;1.83;;;0.93;;
31500;SDS011;31032;49.512;10.892;2022-08-01T08:31:45;1.38;;;0.88;;
31500;SDS011;31032;49.512;10.892;2022-08-01T08:34:10;2.17;;;1.35;;
31500;SDS011;31032;49.512;10.892;2022-08-01T08:36:37;1.45;;;1.00;;
31500;SDS011;31032;49.512;10.892;2022-08-01T08:39:03;1.13;;;0.70;;
31500;SDS011;31032;49.512;10.892;2022-08-01T08:41:29;1.83;;;0.75;;
31500;SDS011;31032;49.512;10.892;2022-08-01T08:43:56;2.30;;;0.82;;
31500;SDS011;31032;49.512;10.892;2022-08-01T08:46:24;1.42;;;0.60;;
31500;SDS011;31032;49.512;10.892;2022-08-01T08:48:51;2.05;;;0.70;;
31500;SDS011;31032;49.512;10.892;2022-08-01T08:51:17;0.80;;;0.70;;
31500;SDS011;31032;49.512;10.892;2022-08-01T08:53:44;1.25;;;0.80;;
31500;SDS011;31032;49.512;10.892;2022-08-01T08:56:14;1.30;;;0.70;;
31500;SDS011;31032;49.512;10.892;2022-08-01T08:58:41;1.00;;;0.60;;
31500;SDS011;31032;49.512;10.892;2022-08-01T09:01:09;1.98;;;0.70;;
31500;SDS011;31032;49.512;10.892;2022-08-01T09:03:35;1.00;;;0.70;;
31500;SDS011;31032;49.512;10.892;2022-08-01T09:06:01;1.95;;;0.90;;
31500;SDS011;31032;49.512;10.892;2022-08-01T09:08:26;2.45;;;0.80;;
31500;SDS011;31032;49.512;10.892;2022-08-01T09:10:51;1.00;;;0.70;;
31500;SDS011;31032;49.512;10.892;2022-08-01T09:13:17;2.17;;;0.73;;
31500;SDS011;31032;49.512;10.892;2022-08-01T09:18:25;0.85;;;0.50;;
31500;SDS011;31032;49.512;10.892;2022-08-01T09:20:51;3.97;;;0.70;;
31500;SDS011;31032;49.512;10.892;2022-08-01T09:23:35;1.23;;;0.50;;
31500;SDS011;31032;49.512;10.892;2022-08-01T09:26:05;0.80;;;0.50;;
31500;SDS011;31032;49.512;10.892;2022-08-01T09:28:31;0.85;;;0.60;;
31500;SDS011;31032;49.512;10.892;2022-08-01T09:30:57;1.08;;;0.50;;
31500;SDS011;31032;49.512;10.892;2022-08-01T09:33:23;0.93;;;0.50;;
31500;SDS011;31032;49.512;10.892;2022-08-01T09:35:56;1.73;;;0.82;;
31500;SDS011;31032;49.512;10.892;2022-08-01T09:38:23;0.88;;;0.60;;
31500;SDS011;31032;49.512;10.892;2022-08-01T09:40:53;2.15;;;0.50;;
31500;SDS011;31032;49.512;10.892;2022-08-01T09:43:25;1.13;;;0.60;;
31500;SDS011;31032;49.512;10.892;2022-08-01T09:45:52;0.70;;;0.40;;
31500;SDS011;31032;49.512;10.892;2022-08-01T09:48:19;0.70;;;0.40;;
31500;SDS011;31032;49.512;10.892;2022-08-01T09:50:47;0.82;;;0.40;;
31500;SDS011;31032;49.512;10.892;2022-08-01T09:53:15;1.25;;;0.63;;
31500;SDS011;31032;49.512;10.892;2022-08-01T09:55:41;1.02;;;0.60;;
31500;SDS011;31032;49.512;10.892;2022-08-01T09:58:07;1.13;;;0.35;;
31500;SDS011;31032;49.512;10.892;2022-08-01T10:00:33;1.98;;;0.70;;
31500;SDS011;31032;49.512;10.892;2022-08-01T10:02:59;0.70;;;0.47;;
31500;SDS011;31032;49.512;10.892;2022-08-01T10:05:43;1.27;;;0.50;;
31500;SDS011;31032;49.512;10.892;2022-08-01T10:08:09;1.67;;;0.63;;
31500;SDS011;31032;49.512;10.892;2022-08-01T10:10:35;0.35;;;0.25;;
31500;SDS011;31032;49.512;10.892;2022-08-01T10:13:00;0.98;;;0.40;;
31500;SDS011;31032;49.512;10.892;2022-08-01T10:15:27;1.55;;;0.57;;
31500;SDS011;31032;49.512;10.892;2022-08-01T10:17:53;1.25;;;0.60;;
31500;SDS011;31032;49.512;10.892;2022-08-01T10:20:24;0.85;;;0.50;;
31500;SDS011;31032;49.512;10.892;2022-08-01T10:22:52;0.80;;;0.38;;
31500;SDS011;31032;49.512;10.892;2022-08-01T10:25:19;1.23;;;0.40;;
31500;SDS011;31032;49.512;10.892;2022-08-01T10:27:45;1.42;;;0.50;;
31500;SDS011;31032;49.512;10.892;2022-08-01T10:32:39;1.15;;;0.40;;
31500;SDS011;31032;49.512;10.892;2022-08-01T10:35:07;1.17;;;0.40;;
31500;SDS011;31032;49.512;10.892;2022-08-01T10:37:34;1.85;;;0.60;;
31500;SDS011;31032;49.512;10.892;2022-08-01T10:40:00;0.90;;;0.55;;
31500;SDS011;31032;49.512;10.892;2022-08-01T10:42:26;1.00;;;0.35;;
31500;SDS011;31032;49.512;10.892;2022-08-01T10:44:52;1.67;;;0.50;;
31500;SDS011;31032;49.512;10.892;2022-08-01T10:47:21;0.75;;;0.30;;
31500;SDS011;31032;49.512;10.892;2022-08-01T10:52:29;0.40;;;0.30;;
31500;SDS011;31032;49.512;10.892;2022-08-01T10:55:01;1.80;;;0.40;;
31500;SDS011;31032;49.512;10.892;2022-08-01T10:57:47;0.88;;;0.43;;
31500;SDS011;31032;49.512;10.892;2022-08-01T11:00:21;1.25;;;0.60;;
31500;SDS011;31032;49.512;10.892;2022-08-01T11:03:00;1.30;;;0.40;;
31500;SDS011;31032;49.512;10.892;2022-08-01T11:05:32;2.50;;;0.60;;
31500;SDS011;31032;49.512;10.892;2022-08-01T11:08:03;1.15;;;0.50;;
31500;SDS011;31032;49.512;10.892;2022-08-01T11:13:03;2.47;;;0.57;;
31500;SDS011;31032;49.512;10.892;2022-08-01T11:15:32;1.05;;;0.40;;
31500;SDS011;31032;49.512;10.892;2022-08-01T11:17:59;0.45;;;0.32;;
31500;SDS011;31032;49.512;10.892;2022-08-01T11:20:33;1.00;;;0.40;;
31500;SDS011;31032;49.512;10.892;2022-08-01T11:33:11;1.05;;;0.50;;
31500;SDS011;31032;49.512;10.892;2022-08-01T11:36:16;0.40;;;0.30;;
31500;SDS011;31032;49.512;10.892;2022-08-01T11:38:36;0.90;;;0.40;;
31500;SDS011;31032;49.512;10.892;2022-08-01T11:44:01;0.93;;;0.40;;
31500;SDS011;31032;49.512;10.892;2022-08-01T11:54:31;1.02;;;0.43;;
31500;SDS011;31032;49.512;10.892;2022-08-01T11:56:59;0.50;;;0.30;;
31500;SDS011;31032;49.512;10.892;2022-08-01T11:59:26;2.97;;;0.50;;
31500;SDS011;31032;49.512;10.892;2022-08-01T12:01:52;0.75;;;0.50;;
31500;SDS011;31032;49.512;10.892;2022-08-01T12:04:17;0.43;;;0.30;;
31500;SDS011;31032;49.512;10.892;2022-08-01T12:06:43;1.95;;;0.50;;
31500;SDS011;31032;49.512;10.892;2022-08-01T12:09:15;0.63;;;0.30;;
31500;SDS011;31032;49.512;10.892;2022-08-01T12:11:48;0.52;;;0.40;;
31500;SDS011;31032;49.512;10.892;2022-08-01T12:14:20;0.60;;;0.43;;
31500;SDS011;31032;49.512;10.892;2022-08-01T12:16:52;1.10;;;0.50;;
31500;SDS011;31032;49.512;10.892;2022-08-01T12:19:19;1.08;;;0.50;;
31500;SDS011;31032;49.512;10.892;2022-08-01T12:22:04;0.63;;;0.30;;
31500;SDS011;31032;49.512;10.892;2022-08-01T12:24:39;0.82;;;0.40;;
31500;SDS011;31032;49.512;10.892;2022-08-01T12:27:08;1.67;;;0.60;;
31500;SDS011;31032;49.512;10.892;2022-08-01T12:29:35;1.58;;;0.50;;
31500;SDS011;31032;49.512;10.892;2022-08-01T12:32:20;1.48;;;0.40;;
31500;SDS011;31032;49.512;10.892;2022-08-01T12:34:54;0.60;;;0.30;;
31500;SDS011;31032;49.512;10.892;2022-08-01T12:37:21;2.17;;;0.63;;
31500;SDS011;31032;49.512;10.892;2022-08-01T12:39:47;1.23;;;0.50;;
31500;SDS011;31032;49.512;10.892;2022-08-01T12:42:12;0.98;;;0.50;;
31500;SDS011;31032;49.512;10.892;2022-08-01T12:44:39;0.93;;;0.52;;
31500;SDS011;31032;49.512;10.892;2022-08-01T12:47:06;1.00;;;0.55;;
31500;SDS011;31032;49.512;10.892;2022-08-01T12:49:36;1.15;;;0.50;;
31500;SDS011;31032;49.512;10.892;2022-08-01T12:52:02;1.05;;;0.40;;
31500;SDS011;31032;49.512;10.892;2022-08-01T12:54:28;0.55;;;0.38;;
31500;SDS011;31032;49.512;10.892;2022-08-01T12:56:54;2.10;;;0.40;;
31500;SDS011;31032;49.512;10.892;2022-08-01T12:59:20;0.82;;;0.30;;
31500;SDS011;31032;49.512;10.892;2022-08-01T13:01:53;1.02;;;0.30;;
31500;SDS011;31032;49.512;10.892;2022-08-01T13:04:22;0.60;;;0.40;;
31500;SDS011;31032;49.512;10.892;2022-08-01T13:06:48;0.88;;;0.40;;
31500;SDS011;31032;49.512;10.892;2022-08-01T13:09:18;0.50;;;0.20;;
31500;SDS011;31032;49.512;10.892;2022-08-01T13:11:44;0.70;;;0.22;;
31500;SDS011;31032;49.512;10.892;2022-08-01T13:14:25;1.60;;;0.32;;
31500;SDS011;31032;49.512;10.892;2022-08-01T13:16:51;0.40;;;0.22;;
31500;SDS011;31032;49.512;10.892;2022-08-01T13:19:17;0.75;;;0.40;;
31500;SDS011;31032;49.512;10.892;2022-08-01T13:21:54;0.63;;;0.40;;
31500;SDS011;31032;49.512;10.892;2022-08-01T13:24:25;2.30;;;0.30;;
31500;SDS011;31032;49.512;10.892;2022-08-01T13:26:56;1.15;;;0.40;;
31500;SDS011;31032;49.512;10.892;2022-08-01T13:29:38;0.93;;;0.30;;
31500;SDS011;31032;49.512;10.892;2022-08-01T13:32:17;1.67;;;0.52;;
31500;SDS011;31032;49.512;10.892;2022-08-01T13:34:44;0.70;;;0.30;;
31500;SDS011;31032;49.512;10.892;2022-08-01T13:37:10;1.00;;;0.32;;
31500;SDS011;31032;49.512;10.892;2022-08-01T13:39:35;0.30;;;0.20;;
31500;SDS011;31032;49.512;10.892;2022-08-01T13:42:10;1.20;;;0.40;;
31500;SDS011;31032;49.512;10.892;2022-08-01T13:44:37;0.32;;;0.20;;
31500;SDS011;31032;49.512;10.892;2022-08-01T13:47:03;0.88;;;0.30;;
31500;SDS011;31032;49.512;10.892;2022-08-01T13:49:30;1.02;;;0.50;;
31500;SDS011;31032;49.512;10.892;2022-08-01T13:51:55;5.47;;;0.30;;
31500;SDS011;31032;49.512;10.892;2022-08-01T13:54:21;0.50;;;0.30;;
31500;SDS011;31032;49.512;10.892;2022-08-01T13:56:48;0.40;;;0.30;;
31500;SDS011;31032;49.512;10.892;2022-08-01T13:59:13;0.50;;;0.22;;
31500;SDS011;31032;49.512;10.892;2022-08-01T14:01:39;1.83;;;0.40;;
31500;SDS011;31032;49.512;10.892;2022-08-01T14:04:05;2.13;;;0.30;;
31500;SDS011;31032;49.512;10.892;2022-08-01T14:06:31;1.35;;;0.30;;
31500;SDS011;31032;49.512;10.892;2022-08-01T14:08:57;0.50;;;0.30;;
31500;SDS011;31032;49.512;10.892;2022-08-01T14:11:22;0.90;;;0.40;;
31500;SDS011;31032;49.512;10.892;2022-08-01T14:13:48;0.50;;;0.30;;
31500;SDS011;31032;49.512;10.892;2022-08-01T14:16:14;0.43;;;0.30;;
31500;SDS011;31032;49.512;10.892;2022-08-01T14:18:39;2.35;;;0.30;;
31500;SDS011;31032;49.512;10.892;2022-08-01T14:21:05;0.63;;;0.30;;
31500;SDS011;31032;49.512;10.892;2022-08-01T14:23:31;0.63;;;0.20;;
31500;SDS011;31032;49.512;10.892;2022-08-01T14:25:56;1.65;;;0.40;;
31500;SDS011;31032;49.512;10.892;2022-08-01T14:28:21;2.05;;;0.30;;
31500;SDS011;31032;49.512;10.892;2022-08-01T14:30:48;0.45;;;0.30;;
31500;SDS011;31032;49.512;10.892;2022-08-01T14:33:13;0.43;;;0.25;;
31500;SDS011;31032;49.512;10.892;2022-08-01T14:35:39;0.28;;;0.17;;
31500;SDS011;31032;49.512;10.892;2022-08-01T14:38:06;0.80;;;0.20;;
31500;SDS011;31032;49.512;10.892;2022-08-01T14:40:32;0.70;;;0.20;;
31500;SDS011;31032;49.512;10.892;2022-08-01T14:42:58;0.52;;;0.17;;
31500;SDS011;31032;49.512;10.892;2022-08-01T14:45:26;0.25;;;0.20;;
31500;SDS011;31032;49.512;10.892;2022-08-01T14:47:51;0.60;;;0.20;;
31500;SDS011;31032;49.512;10.892;2022-08-01T14:50:17;6.13;;;0.30;;
31500;SDS011;31032;49.512;10.892;2022-08-01T14:52:42;0.52;;;0.30;;
31500;SDS011;31032;49.512;10.892;2022-08-01T14:55:08;0.55;;;0.30;;
31500;SDS011;31032;49.512;10.892;2022-08-01T14:57:36;1.65;;;0.20;;
31500;SDS011;31032;49.512;10.892;2022-08-01T15:00:07;1.42;;;0.20;;
31500;SDS011;31032;49.512;10.892;2022-08-01T15:02:38;0.50;;;0.20;;
31500;SDS011;31032;49.512;10.892;2022-08-01T15:05:04;0.98;;;0.30;;
31500;SDS011;31032;49.512;10.892;2022-08-01T15:07:30;1.67;;;0.25;;
31500;SDS011;31032;49.512;10.892;2022-08-01T15:09:55;0.40;;;0.20;;
31500;SDS011;31032;49.512;10.892;2022-08-01T15:12:21;0.20;;;0.20;;
31500;SDS011;31032;49.512;10.892;2022-08-01T15:14:46;0.20;;;0.20;;
31500;SDS011;31032;49.512;10.892;2022-08-01T15:17:19;0.30;;;0.20;;
31500;SDS011;31032;49.512;10.892;2022-08-01T15:19:56;2.08;;;0.32;;
31500;SDS011;31032;49.512;10.892;2022-08-01T15:22:24;0.35;;;0.20;;
31500;SDS011;31032;49.512;10.892;2022-08-01T15:24:50;0.30;;;0.28;;